createdAt,value
2023-03-26T00:01:39.486Z,18.40
2023-03-26T00:04:07.926Z,18.35
2023-03-26T00:06:38.716Z,18.38
2023-03-26T00:09:07.155Z,18.59
2023-03-26T00:11:35.067Z,18.72
2023-03-26T00:14:05.476Z,18.34
2023-03-26T00:16:33.459Z,18.46
2023-03-26T00:19:01.414Z,16.75
2023-03-26T00:21:30.147Z,17.45
2023-03-26T00:23:58.545Z,18.25
2023-03-26T00:26:26.265Z,18.81
2023-03-26T00:28:54.551Z,17.48
2023-03-26T00:31:24.186Z,18.33
2023-03-26T00:33:54.256Z,17.92
2023-03-26T00:36:22.159Z,17.72
2023-03-26T00:38:49.963Z,17.20
2023-03-26T00:41:26.451Z,18.13
2023-03-26T00:43:56.189Z,17.56
2023-03-26T00:46:25.545Z,19.37
2023-03-26T00:48:53.303Z,18.13
2023-03-26T00:51:21.568Z,19.03
2023-03-26T00:53:49.849Z,18.36
2023-03-26T00:56:17.606Z,20.06
2023-03-26T00:58:46.055Z,18.76
2023-03-26T01:01:14.558Z,18.65
2023-03-26T01:03:50.333Z,18.02
2023-03-26T01:06:32.669Z,17.59
2023-03-26T01:09:04.230Z,17.95
2023-03-26T01:11:32.499Z,17.58
2023-03-26T01:14:00.974Z,18.44
2023-03-26T01:16:29.079Z,17.27
2023-03-26T01:18:58.772Z,18.62
2023-03-26T01:21:28.680Z,18.92
2023-03-26T01:23:59.718Z,18.62
2023-03-26T01:26:34.137Z,18.06
2023-03-26T01:29:03.133Z,17.69
2023-03-26T01:31:37.195Z,17.91
2023-03-26T01:34:05.609Z,16.22
2023-03-26T01:36:35.721Z,15.85
2023-03-26T01:39:06.033Z,16.62
2023-03-26T01:41:34.905Z,16.44
2023-03-26T01:44:04.354Z,16.49
2023-03-26T01:46:34.180Z,16.67
2023-03-26T01:49:01.788Z,17.95
2023-03-26T01:51:30.034Z,16.20
2023-03-26T01:53:58.116Z,17.05
2023-03-26T01:56:29.170Z,14.05
2023-03-26T01:59:04.883Z,15.40
2023-03-26T02:01:36.588Z,13.82
2023-03-26T02:04:07.126Z,16.27
2023-03-26T02:06:37.366Z,13.89
2023-03-26T02:09:05.660Z,16.67
2023-03-26T02:11:35.899Z,15.03
2023-03-26T02:14:04.802Z,14.44
2023-03-26T02:16:32.447Z,16.18
2023-03-26T02:19:00.378Z,15.92
2023-03-26T02:21:28.374Z,15.46
2023-03-26T02:24:02.670Z,16.41
2023-03-26T02:26:34.506Z,13.36
2023-03-26T02:29:08.665Z,14.54
2023-03-26T02:31:38.157Z,15.75
2023-03-26T02:34:06.066Z,15.50
2023-03-26T02:36:36.864Z,15.89
2023-03-26T02:39:05.368Z,15.82
2023-03-26T02:41:39.367Z,17.42
2023-03-26T02:44:10.324Z,17.73
2023-03-26T02:46:56.744Z,17.04
2023-03-26T02:50:04.575Z,16.49
2023-03-26T02:52:59.825Z,17.87
2023-03-26T02:55:28.986Z,16.69
2023-03-26T02:58:01.708Z,16.43
2023-03-26T03:00:35.880Z,17.41
2023-03-26T03:03:24.292Z,18.53
2023-03-26T03:06:17.038Z,15.79
2023-03-26T03:08:49.958Z,14.99
2023-03-26T03:11:18.378Z,17.03
2023-03-26T03:13:48.946Z,15.62
2023-03-26T03:16:20.389Z,16.10
2023-03-26T03:18:54.191Z,15.18
2023-03-26T03:21:23.087Z,15.71
2023-03-26T03:23:50.789Z,16.20
2023-03-26T03:26:21.627Z,16.66
2023-03-26T03:28:55.804Z,17.08
2023-03-26T03:31:24.668Z,16.59
2023-03-26T03:33:53.530Z,16.70
2023-03-26T03:36:22.977Z,16.87
2023-03-26T03:39:02.556Z,18.06
2023-03-26T03:41:30.840Z,18.12
2023-03-26T03:44:02.431Z,17.69
2023-03-26T03:46:32.417Z,17.05
2023-03-26T03:49:00.335Z,18.20
2023-03-26T03:51:33.318Z,16.77
2023-03-26T03:54:03.898Z,16.49
2023-03-26T03:56:47.307Z,16.53
2023-03-26T03:59:21.949Z,14.89
2023-03-26T04:01:50.742Z,17.63
2023-03-26T04:04:29.185Z,16.14
2023-03-26T04:07:01.590Z,17.17
2023-03-26T04:09:39.394Z,15.92
2023-03-26T04:12:14.675Z,16.31
2023-03-26T04:14:49.154Z,17.30
2023-03-26T04:17:21.828Z,17.29
2023-03-26T04:19:50.403Z,16.55
2023-03-26T04:22:19.406Z,18.78
2023-03-26T04:24:54.651Z,16.62
2023-03-26T04:27:41.748Z,18.34
2023-03-26T04:30:20.461Z,19.16
2023-03-26T04:32:58.385Z,18.46
2023-03-26T04:35:27.281Z,17.12
2023-03-26T04:37:57.738Z,16.67
2023-03-26T04:40:34.705Z,17.66
2023-03-26T04:43:02.481Z,17.45
2023-03-26T04:45:49.865Z,17.07
2023-03-26T04:48:20.429Z,17.68
2023-03-26T04:50:48.651Z,17.36
2023-03-26T04:53:19.397Z,17.82
2023-03-26T04:56:13.107Z,17.25
2023-03-26T04:59:14.868Z,17.83
2023-03-26T05:01:45.928Z,19.15
2023-03-26T05:04:16.260Z,18.39
2023-03-26T05:06:44.302Z,17.24
2023-03-26T05:09:22.816Z,17.99
2023-03-26T05:12:12.383Z,16.68
2023-03-26T05:14:54.085Z,18.23
2023-03-26T05:17:35.218Z,17.20
2023-03-26T05:20:05.189Z,16.59
2023-03-26T05:22:33.420Z,18.19
2023-03-26T05:25:15.531Z,16.67
2023-03-26T05:27:43.307Z,17.91
2023-03-26T05:30:12.151Z,17.69
2023-03-26T05:32:46.102Z,17.24
2023-03-26T05:35:16.150Z,18.08
2023-03-26T05:37:45.516Z,18.27
2023-03-26T05:40:14.726Z,16.72
2023-03-26T05:42:47.341Z,17.69
2023-03-26T05:45:30.313Z,18.10
2023-03-26T05:48:01.881Z,17.95
2023-03-26T05:50:29.557Z,17.31
2023-03-26T05:53:00.543Z,16.88
2023-03-26T05:55:28.861Z,16.54
2023-03-26T05:58:15.059Z,17.90
2023-03-26T06:01:05.398Z,19.38
2023-03-26T06:03:54.446Z,18.52
2023-03-26T06:06:26.019Z,19.42
2023-03-26T06:09:01.394Z,18.03
2023-03-26T06:11:30.750Z,19.07
2023-03-26T06:13:58.555Z,18.89
2023-03-26T06:16:27.630Z,17.57
2023-03-26T06:19:17.411Z,18.71
2023-03-26T06:21:56.755Z,18.65
2023-03-26T06:24:30.639Z,17.93
2023-03-26T06:27:18.216Z,18.32
2023-03-26T06:30:12.474Z,17.46
2023-03-26T06:32:48.104Z,17.00
2023-03-26T06:35:23.230Z,16.14
2023-03-26T06:37:50.961Z,15.53
2023-03-26T06:40:18.840Z,16.47
2023-03-26T06:43:10.344Z,16.67
2023-03-26T06:45:51.022Z,17.84
2023-03-26T06:48:37.250Z,18.25
2023-03-26T06:51:24.780Z,17.44
2023-03-26T06:54:31.011Z,16.19
2023-03-26T06:57:06.299Z,17.38
2023-03-26T06:59:56.712Z,18.23
2023-03-26T07:02:43.027Z,18.87
2023-03-26T07:05:29.322Z,18.38
2023-03-26T07:08:17.248Z,21.32
2023-03-26T07:11:08.225Z,19.43
2023-03-26T07:14:00.709Z,19.24
2023-03-26T07:16:50.118Z,18.46
2023-03-26T07:19:36.379Z,19.51
2023-03-26T07:22:04.538Z,18.08
2023-03-26T07:24:52.593Z,18.82
2023-03-26T07:27:48.366Z,18.21
2023-03-26T07:30:25.967Z,20.03
2023-03-26T07:33:13.009Z,19.07
2023-03-26T07:35:54.241Z,18.77
2023-03-26T07:38:30.047Z,18.88
2023-03-26T07:41:30.270Z,19.62
2023-03-26T07:44:28.484Z,18.21
2023-03-26T07:47:25.619Z,16.91
2023-03-26T07:50:16.063Z,17.67
2023-03-26T07:53:08.975Z,18.40
2023-03-26T07:56:11.111Z,20.12
2023-03-26T07:59:00.905Z,16.62
2023-03-26T08:02:01.122Z,19.60
2023-03-26T08:04:54.746Z,19.87
2023-03-26T08:07:45.071Z,20.42
2023-03-26T08:10:22.475Z,20.00
2023-03-26T08:13:02.422Z,20.97
2023-03-26T08:15:32.874Z,17.71
2023-03-26T08:18:01.791Z,19.30
2023-03-26T08:20:32.606Z,18.34
2023-03-26T08:23:03.689Z,19.13
2023-03-26T08:25:33.317Z,19.49
2023-03-26T08:28:04.766Z,19.44
2023-03-26T08:30:33.969Z,19.28
2023-03-26T08:33:03.617Z,19.96
2023-03-26T08:35:31.414Z,20.81
2023-03-26T08:37:59.132Z,20.74
2023-03-26T08:40:45.118Z,21.09
2023-03-26T08:43:30.519Z,19.23
2023-03-26T08:46:01.236Z,20.96
2023-03-26T08:49:02.338Z,20.34
2023-03-26T08:51:48.671Z,22.61
2023-03-26T08:54:31.170Z,21.19
2023-03-26T08:57:02.765Z,22.00
2023-03-26T08:59:50.824Z,21.36
2023-03-26T09:02:23.369Z,21.95
2023-03-26T09:05:20.821Z,22.31
2023-03-26T09:07:53.152Z,23.92
2023-03-26T09:10:38.752Z,22.40
2023-03-26T09:13:25.562Z,22.90
2023-03-26T09:16:12.486Z,20.25
2023-03-26T09:19:00.922Z,20.36
2023-03-26T09:21:44.095Z,20.82
2023-03-26T09:24:32.597Z,20.41
2023-03-26T09:27:12.257Z,20.02
2023-03-26T09:29:48.349Z,19.58
2023-03-26T09:32:30.960Z,21.15
2023-03-26T09:35:02.315Z,20.17
2023-03-26T09:37:31.079Z,20.62
2023-03-26T09:40:01.864Z,20.96
2023-03-26T09:42:33.406Z,20.78
2023-03-26T09:45:25.263Z,20.77
2023-03-26T09:48:07.502Z,20.74
2023-03-26T09:50:47.769Z,20.62
2023-03-26T09:53:27.918Z,20.55
2023-03-26T09:55:58.417Z,20.18
2023-03-26T09:58:45.204Z,20.48
2023-03-26T10:01:14.635Z,21.15
2023-03-26T10:03:48.455Z,21.47
2023-03-26T10:06:20.758Z,20.76
2023-03-26T10:08:58.203Z,20.29
2023-03-26T10:11:28.647Z,19.09
2023-03-26T10:13:59.969Z,20.12
2023-03-26T10:16:29.699Z,20.73
2023-03-26T10:19:00.979Z,22.17
2023-03-26T10:21:31.014Z,20.37
2023-03-26T10:24:08.147Z,20.10
2023-03-26T10:27:08.768Z,19.69
2023-03-26T10:29:59.391Z,19.28
2023-03-26T10:32:28.648Z,19.64
2023-03-26T10:35:03.446Z,20.32
2023-03-26T10:37:34.662Z,21.76
2023-03-26T10:40:07.825Z,20.71
2023-03-26T10:42:46.467Z,20.74
2023-03-26T10:45:25.659Z,21.98
2023-03-26T10:48:08.192Z,22.05
2023-03-26T10:50:46.324Z,22.71
2023-03-26T10:53:15.045Z,22.00
2023-03-26T10:55:45.337Z,22.12
2023-03-26T10:58:14.726Z,19.82
2023-03-26T11:00:45.879Z,18.00
2023-03-26T11:03:34.541Z,19.47
2023-03-26T11:06:04.982Z,18.65
2023-03-26T11:08:34.178Z,19.85
2023-03-26T11:11:02.965Z,18.04
2023-03-26T11:13:40.488Z,20.49
2023-03-26T11:16:10.788Z,20.55
2023-03-26T11:18:40.220Z,21.96
2023-03-26T11:21:18.460Z,21.40
2023-03-26T11:24:04.988Z,21.67
2023-03-26T11:26:36.092Z,21.19
2023-03-26T11:29:32.568Z,19.66
2023-03-26T11:32:03.624Z,21.88
2023-03-26T11:34:34.669Z,21.25
2023-03-26T11:37:02.794Z,22.91
2023-03-26T11:39:30.932Z,22.23
2023-03-26T11:42:01.403Z,19.67
2023-03-26T11:44:31.498Z,22.63
2023-03-26T11:47:01.415Z,23.13
2023-03-26T11:49:30.472Z,22.55
2023-03-26T11:51:59.090Z,22.32
2023-03-26T11:54:27.882Z,23.11
2023-03-26T11:57:05.087Z,24.12
2023-03-26T11:59:41.896Z,20.62
2023-03-26T12:02:18.661Z,21.63
2023-03-26T12:04:51.734Z,23.49
2023-03-26T12:07:21.081Z,22.87
2023-03-26T12:09:52.138Z,23.63
2023-03-26T12:12:19.838Z,18.29
2023-03-26T12:14:47.482Z,20.70
2023-03-26T12:17:15.768Z,21.31
2023-03-26T12:19:44.070Z,19.91
2023-03-26T12:22:36.101Z,22.18
2023-03-26T12:25:16.102Z,23.80
2023-03-26T12:27:44.430Z,24.62
2023-03-26T12:30:13.171Z,21.18
2023-03-26T12:32:46.441Z,23.46
2023-03-26T12:35:18.614Z,26.88
2023-03-26T12:37:48.173Z,22.15
2023-03-26T12:40:29.965Z,24.05
2023-03-26T12:44:47.905Z,23.80
2023-03-26T12:45:45.964Z,25.21
2023-03-26T12:48:34.201Z,22.54
2023-03-26T12:51:05.296Z,23.67
2023-03-26T12:53:37.538Z,24.41
2023-03-26T12:56:08.408Z,22.46
2023-03-26T12:58:47.967Z,22.33
2023-03-26T13:01:17.811Z,23.41
2023-03-26T13:03:52.856Z,23.39
2023-03-26T13:06:31.397Z,22.28
2023-03-26T13:09:26.035Z,22.27
2023-03-26T13:12:00.389Z,22.51
2023-03-26T13:14:41.370Z,21.29
2023-03-26T13:17:11.354Z,19.50
2023-03-26T13:19:40.338Z,23.65
2023-03-26T13:22:11.142Z,22.75
2023-03-26T13:24:43.515Z,22.09
2023-03-26T13:27:18.056Z,19.63
2023-03-26T13:29:47.842Z,23.46
2023-03-26T13:32:17.126Z,20.29
2023-03-26T13:34:46.471Z,22.87
2023-03-26T13:37:15.901Z,24.67
2023-03-26T13:39:49.893Z,21.28
2023-03-26T13:42:21.765Z,23.55
2023-03-26T13:44:52.765Z,23.26
2023-03-26T13:47:33.415Z,23.26
2023-03-26T13:50:01.546Z,25.29
2023-03-26T13:52:30.095Z,24.68
2023-03-26T13:55:08.515Z,21.08
2023-03-26T13:57:37.307Z,22.68
2023-03-26T14:00:07.324Z,23.48
2023-03-26T14:02:40.513Z,22.95
2023-03-26T14:05:09.173Z,21.50
2023-03-26T14:07:39.130Z,24.73
2023-03-26T14:10:09.749Z,23.37
2023-03-26T14:12:49.090Z,22.07
2023-03-26T14:15:20.025Z,26.82
2023-03-26T14:17:49.260Z,25.00
2023-03-26T14:20:37.414Z,25.07
2023-03-26T14:23:08.893Z,22.66
2023-03-26T14:25:43.654Z,21.12
2023-03-26T14:28:15.093Z,20.09
2023-03-26T14:30:46.282Z,21.56
2023-03-26T14:33:27.219Z,21.26
2023-03-26T14:35:58.197Z,21.52
2023-03-26T14:38:35.150Z,23.86
2023-03-26T14:41:06.075Z,25.31
2023-03-26T14:43:41.806Z,28.60
2023-03-26T14:46:12.026Z,23.66
2023-03-26T14:48:58.118Z,20.67
2023-03-26T14:51:32.057Z,24.46
2023-03-26T14:54:00.833Z,24.84
2023-03-26T14:56:47.184Z,22.93
2023-03-26T14:59:38.932Z,24.06
2023-03-26T15:02:21.470Z,21.79
2023-03-26T15:04:56.857Z,21.69
2023-03-26T15:07:31.332Z,24.06
2023-03-26T15:10:12.748Z,24.72
2023-03-26T15:12:52.039Z,22.63
2023-03-26T15:15:54.057Z,22.63
2023-03-26T15:18:30.752Z,22.30
2023-03-26T15:21:16.999Z,20.81
2023-03-26T15:23:59.452Z,20.05
2023-03-26T15:26:37.075Z,21.26
2023-03-26T15:29:09.519Z,25.87
2023-03-26T15:31:47.569Z,26.18
2023-03-26T15:34:36.066Z,23.61
2023-03-26T15:37:22.254Z,23.78
2023-03-26T15:40:07.750Z,22.86
2023-03-26T15:42:38.513Z,23.19
2023-03-26T15:45:17.246Z,22.12
2023-03-26T15:47:54.136Z,23.78
2023-03-26T15:50:31.396Z,25.30
2023-03-26T15:53:01.272Z,22.14
2023-03-26T15:55:31.382Z,23.74
2023-03-26T15:58:01.411Z,25.14
2023-03-26T16:00:31.918Z,24.39
2023-03-26T16:03:09.833Z,20.01
2023-03-26T16:05:41.936Z,21.46
2023-03-26T16:08:14.740Z,22.00
2023-03-26T16:10:44.570Z,19.05
2023-03-26T16:13:27.920Z,18.40
2023-03-26T16:15:57.979Z,19.51
2023-03-26T16:18:29.533Z,22.32
2023-03-26T16:21:04.297Z,20.54
2023-03-26T16:23:33.594Z,19.00
2023-03-26T16:26:17.325Z,19.93
2023-03-26T16:29:03.524Z,20.80
2023-03-26T16:31:38.322Z,21.03
2023-03-26T16:34:26.147Z,20.51
2023-03-26T16:36:54.308Z,23.28
2023-03-26T16:39:25.749Z,20.51
2023-03-26T16:42:05.690Z,20.91
2023-03-26T16:44:37.566Z,20.04
2023-03-26T16:47:08.860Z,21.74
2023-03-26T16:49:38.833Z,22.00
2023-03-26T16:52:09.675Z,20.78
2023-03-26T16:54:41.069Z,21.06
2023-03-26T16:57:12.914Z,22.20
2023-03-26T16:59:46.303Z,18.75
2023-03-26T17:02:37.485Z,20.61
2023-03-26T17:05:09.880Z,20.58
2023-03-26T17:07:38.615Z,22.16
2023-03-26T17:10:09.509Z,21.97
2023-03-26T17:12:52.872Z,19.30
2023-03-26T17:15:23.331Z,20.85
2023-03-26T17:17:55.578Z,19.42
2023-03-26T17:20:32.920Z,21.34
2023-03-26T17:23:03.575Z,20.67
2023-03-26T17:25:36.241Z,20.83
2023-03-26T17:28:21.279Z,21.06
2023-03-26T17:31:12.757Z,23.26
2023-03-26T17:33:42.259Z,19.25
2023-03-26T17:36:28.696Z,22.16
2023-03-26T17:39:15.355Z,21.66
2023-03-26T17:41:54.414Z,19.04
2023-03-26T17:44:28.914Z,19.09
2023-03-26T17:46:56.811Z,20.55
2023-03-26T17:49:26.928Z,21.61
2023-03-26T17:51:57.398Z,22.54
2023-03-26T17:54:27.164Z,22.28
2023-03-26T17:56:55.584Z,23.11
2023-03-26T17:59:24.214Z,22.89
2023-03-26T18:01:55.411Z,19.52
2023-03-26T18:04:28.066Z,22.09
2023-03-26T18:06:59.810Z,20.39
2023-03-26T18:09:31.452Z,21.71
2023-03-26T18:12:05.111Z,20.82
2023-03-26T18:14:50.690Z,22.17
2023-03-26T18:17:18.400Z,22.69
2023-03-26T18:19:51.534Z,20.39
2023-03-26T18:22:20.753Z,21.38
2023-03-26T18:24:48.603Z,23.03
2023-03-26T18:27:16.720Z,21.64
2023-03-26T18:29:45.017Z,19.68
2023-03-26T18:32:22.157Z,21.97
2023-03-26T18:34:52.541Z,21.95
2023-03-26T18:37:21.004Z,21.22
2023-03-26T18:39:57.297Z,19.12
2023-03-26T18:42:24.992Z,21.69
2023-03-26T18:44:53.615Z,19.96
2023-03-26T18:47:27.783Z,19.56
2023-03-26T18:49:57.351Z,20.35
2023-03-26T18:52:24.985Z,19.19
2023-03-26T18:54:53.218Z,20.71
2023-03-26T18:57:22.541Z,21.60
2023-03-26T18:59:51.135Z,20.06
2023-03-26T19:02:18.990Z,21.57
2023-03-26T19:04:47.219Z,21.60
2023-03-26T19:07:16.943Z,21.34
2023-03-26T19:09:44.707Z,21.26
2023-03-26T19:12:17.276Z,22.17
2023-03-26T19:14:58.128Z,19.46
2023-03-26T19:17:28.588Z,17.97
2023-03-26T19:19:57.496Z,17.82
2023-03-26T19:22:26.756Z,18.73
2023-03-26T19:24:55.864Z,17.28
2023-03-26T19:27:23.624Z,19.81
2023-03-26T19:29:51.264Z,19.18
2023-03-26T19:32:21.084Z,19.45
2023-03-26T19:34:49.184Z,17.92
2023-03-26T19:37:21.318Z,16.30
2023-03-26T19:39:51.293Z,19.10
2023-03-26T19:42:19.990Z,17.22
2023-03-26T19:44:47.784Z,18.02
2023-03-26T19:47:17.041Z,16.66
2023-03-26T19:49:49.658Z,17.17
2023-03-26T19:52:18.362Z,17.37
2023-03-26T19:54:59.649Z,17.78
2023-03-26T19:57:31.276Z,17.85
2023-03-26T19:59:58.928Z,19.06
2023-03-26T20:02:26.810Z,16.30
2023-03-26T20:04:54.564Z,16.39
2023-03-26T20:07:35.813Z,17.42
2023-03-26T20:10:05.552Z,17.39
2023-03-26T20:12:34.911Z,17.32
2023-03-26T20:15:02.833Z,18.38
2023-03-26T20:17:31.496Z,18.13
2023-03-26T20:19:59.654Z,15.09
2023-03-26T20:22:27.334Z,15.73
2023-03-26T20:24:55.058Z,17.21
2023-03-26T20:27:22.703Z,15.88
2023-03-26T20:29:51.726Z,15.81
2023-03-26T20:32:19.888Z,16.68
2023-03-26T20:34:49.850Z,16.95
2023-03-26T20:37:17.543Z,14.18
2023-03-26T20:39:45.686Z,15.10
2023-03-26T20:42:15.406Z,14.36
2023-03-26T20:44:43.718Z,16.12
2023-03-26T20:47:12.855Z,14.49
2023-03-26T20:49:41.136Z,14.18
2023-03-26T20:52:08.855Z,15.63
2023-03-26T20:54:36.785Z,14.49
2023-03-26T20:57:04.629Z,15.04
2023-03-26T20:59:32.437Z,14.60
2023-03-26T21:02:00.216Z,15.65
2023-03-26T21:04:29.485Z,16.59
2023-03-26T21:07:06.972Z,14.18
2023-03-26T21:09:39.367Z,14.85
2023-03-26T21:12:07.878Z,14.88
2023-03-26T21:14:39.204Z,15.15
2023-03-26T21:17:08.084Z,15.87
2023-03-26T21:19:37.371Z,13.74
2023-03-26T21:22:08.040Z,15.15
2023-03-26T21:24:40.923Z,15.14
2023-03-26T21:27:09.913Z,16.15
2023-03-26T21:29:38.068Z,14.89
2023-03-26T21:32:06.106Z,14.42
2023-03-26T21:34:34.221Z,13.00
2023-03-26T21:37:04.389Z,16.06
2023-03-26T21:39:32.419Z,16.60
2023-03-26T21:42:04.761Z,13.80
2023-03-26T21:44:33.942Z,15.46
2023-03-26T21:47:01.811Z,15.18
2023-03-26T21:49:30.261Z,13.86
2023-03-26T21:51:58.127Z,13.38
2023-03-26T21:54:27.951Z,14.23
2023-03-26T21:57:08.196Z,17.16
2023-03-26T21:59:37.768Z,14.56
2023-03-26T22:02:07.222Z,15.20
2023-03-26T22:04:36.100Z,13.03
2023-03-26T22:07:04.792Z,14.37
2023-03-26T22:09:36.354Z,14.97
2023-03-26T22:12:04.361Z,15.39
2023-03-26T22:14:33.589Z,13.91
2023-03-26T22:17:01.222Z,13.29
2023-03-26T22:19:30.362Z,14.78
2023-03-26T22:22:00.211Z,13.40
2023-03-26T22:24:28.064Z,12.72
2023-03-26T22:26:57.086Z,13.97
2023-03-26T22:29:24.831Z,14.63
2023-03-26T22:31:52.443Z,16.38
2023-03-26T22:34:21.222Z,16.86
2023-03-26T22:36:48.827Z,15.83
2023-03-26T22:39:17.212Z,13.17
2023-03-26T22:41:44.838Z,14.16
2023-03-26T22:46:48.960Z,13.07
2023-03-26T22:49:17.077Z,13.78
2023-03-26T22:51:44.707Z,13.75
2023-03-26T22:54:12.468Z,13.12
2023-03-26T22:56:40.518Z,12.67
2023-03-26T22:59:08.613Z,12.57
2023-03-26T23:01:37.606Z,14.18
2023-03-26T23:04:05.324Z,16.06
2023-03-26T23:06:32.986Z,17.08
2023-03-26T23:09:02.538Z,14.57
2023-03-26T23:11:31.039Z,16.58
2023-03-26T23:13:58.681Z,15.22
2023-03-26T23:16:26.435Z,12.21
2023-03-26T23:18:55.461Z,14.76
2023-03-26T23:21:23.214Z,14.47
2023-03-26T23:23:51.597Z,14.51
2023-03-26T23:26:19.234Z,16.46
2023-03-26T23:28:46.961Z,16.85
2023-03-26T23:31:14.560Z,16.67
2023-03-26T23:33:45.837Z,15.60
2023-03-26T23:36:17.684Z,15.26
2023-03-26T23:38:46.978Z,14.90
2023-03-26T23:41:15.346Z,14.92
2023-03-26T23:43:53.329Z,13.56
2023-03-26T23:46:23.472Z,15.42
2023-03-26T23:48:52.009Z,13.28
2023-03-26T23:51:21.129Z,14.88
2023-03-26T23:53:49.093Z,15.81
2023-03-26T23:56:16.782Z,15.16
2023-03-26T23:58:44.413Z,13.74
